createdAt,value
2019-02-12T00:00:05.984Z,0.70
2019-02-12T00:02:34.428Z,0.60
2019-02-12T00:05:02.876Z,0.70
2019-02-12T00:07:31.316Z,0.70
2019-02-12T00:09:59.776Z,0.60
2019-02-12T00:12:28.216Z,0.60
2019-02-12T00:14:56.728Z,0.60
2019-02-12T00:17:25.198Z,0.60
2019-02-12T00:19:53.660Z,0.60
2019-02-12T00:22:22.132Z,0.60
2019-02-12T00:24:50.753Z,0.60
2019-02-12T00:27:19.264Z,0.50
2019-02-12T00:29:47.796Z,0.50
2019-02-12T00:32:16.276Z,0.40
2019-02-12T00:34:44.863Z,0.40
2019-02-12T00:37:13.339Z,0.40
2019-02-12T00:39:41.976Z,0.40
2019-02-12T00:42:10.557Z,0.50
2019-02-12T00:44:39.114Z,0.40
2019-02-12T00:47:07.708Z,0.40
2019-02-12T00:49:36.246Z,0.50
2019-02-12T00:52:04.711Z,0.40
2019-02-12T00:54:33.333Z,0.40
2019-02-12T00:57:01.918Z,0.40
2019-02-12T00:59:30.577Z,0.30
2019-02-12T01:01:59.092Z,0.30
2019-02-12T01:04:27.601Z,0.40
2019-02-12T01:06:56.070Z,0.40
2019-02-12T01:09:24.630Z,0.40
2019-02-12T01:11:53.093Z,0.40
2019-02-12T01:14:21.535Z,0.40
2019-02-12T01:16:49.995Z,0.40
2019-02-12T01:19:18.608Z,0.30
2019-02-12T01:21:47.232Z,0.30
2019-02-12T01:24:15.727Z,0.30
2019-02-12T01:26:44.271Z,0.30
2019-02-12T01:29:12.760Z,0.30
2019-02-12T01:31:41.200Z,0.40
2019-02-12T01:34:10.001Z,0.40
2019-02-12T01:36:38.453Z,0.50
2019-02-12T01:39:09.992Z,0.60
2019-02-12T01:41:38.453Z,0.60
2019-02-12T01:44:06.984Z,0.70
2019-02-12T01:46:35.428Z,0.80
2019-02-12T01:49:03.888Z,0.70
2019-02-12T01:51:35.031Z,0.70
2019-02-12T01:54:02.580Z,0.80
2019-02-12T01:56:31.022Z,0.80
2019-02-12T01:58:59.485Z,0.80
2019-02-12T02:01:27.967Z,0.80
2019-02-12T02:03:56.449Z,0.70
2019-02-12T02:06:24.915Z,0.70
2019-02-12T02:08:53.352Z,0.70
2019-02-12T02:11:21.820Z,0.60
2019-02-12T02:13:50.266Z,0.50
2019-02-12T02:16:18.724Z,0.50
2019-02-12T02:18:47.167Z,0.50
2019-02-12T02:21:15.640Z,0.50
2019-02-12T02:23:44.083Z,0.60
2019-02-12T02:26:12.544Z,0.60
2019-02-12T02:28:40.994Z,0.60
2019-02-12T02:31:09.522Z,0.60
2019-02-12T02:33:37.972Z,0.60
2019-02-12T02:36:06.505Z,0.70
2019-02-12T02:38:34.952Z,0.70
2019-02-12T02:41:03.415Z,0.70
2019-02-12T02:43:31.852Z,0.60
2019-02-12T02:46:00.322Z,0.60
2019-02-12T02:48:28.767Z,0.60
2019-02-12T02:50:57.228Z,0.60
2019-02-12T02:53:26.029Z,0.50
2019-02-12T02:55:54.502Z,0.40
2019-02-12T02:58:22.940Z,0.50
2019-02-12T03:00:51.484Z,0.50
2019-02-12T03:03:19.927Z,0.50
2019-02-12T03:05:48.377Z,0.40
2019-02-12T03:08:16.836Z,0.40
2019-02-12T03:10:45.275Z,0.50
2019-02-12T03:13:13.810Z,0.50
2019-02-12T03:15:42.259Z,0.50
2019-02-12T03:18:10.793Z,0.50
2019-02-12T03:20:39.341Z,0.50
2019-02-12T03:23:07.799Z,0.50
2019-02-12T03:25:36.307Z,0.50
2019-02-12T03:28:04.773Z,0.40
2019-02-12T03:30:33.215Z,0.40
2019-02-12T03:33:01.750Z,0.40
2019-02-12T03:35:30.188Z,0.40
2019-02-12T03:37:58.657Z,0.40
2019-02-12T03:40:27.093Z,0.40
2019-02-12T03:42:55.564Z,0.40
2019-02-12T03:45:24.073Z,0.40
2019-02-12T03:47:52.595Z,0.30
2019-02-12T03:50:21.061Z,0.30
2019-02-12T03:52:49.500Z,0.40
2019-02-12T03:55:17.972Z,0.40
2019-02-12T03:57:46.484Z,0.30
2019-02-12T04:00:16.219Z,0.40
2019-02-12T04:03:02.073Z,0.40
2019-02-12T04:05:30.966Z,0.40
2019-02-12T04:07:59.474Z,0.40
2019-02-12T04:10:28.002Z,0.30
2019-02-12T04:12:56.452Z,0.30
2019-02-12T04:15:24.913Z,0.30
2019-02-12T04:17:53.352Z,0.10
2019-02-12T04:20:21.803Z,0.10
2019-02-12T04:22:50.251Z,0.10
2019-02-12T04:25:19.030Z,-0.10
2019-02-12T04:27:47.470Z,0.00
2019-02-12T04:30:15.904Z,0.00
2019-02-12T04:32:44.405Z,0.00
2019-02-12T04:35:12.873Z,-0.10
2019-02-12T04:37:41.336Z,0.00
2019-02-12T04:40:11.131Z,-0.10
2019-02-12T04:42:39.591Z,0.00
2019-02-12T04:45:10.293Z,-0.10
2019-02-12T04:47:38.836Z,-0.10
2019-02-12T04:50:10.193Z,-0.10
2019-02-12T04:52:38.656Z,-0.20
2019-02-12T04:55:09.598Z,-0.40
2019-02-12T04:57:38.204Z,-0.40
2019-02-12T05:00:09.744Z,-0.20
2019-02-12T05:02:38.216Z,-0.30
2019-02-12T05:05:09.405Z,-0.30
2019-02-12T05:07:37.869Z,-0.20
2019-02-12T05:10:12.540Z,-0.20
2019-02-12T05:12:41.008Z,-0.20
2019-02-12T05:15:10.295Z,-0.20
2019-02-12T05:17:38.759Z,-0.10
2019-02-12T05:20:10.616Z,0.00
2019-02-12T05:22:43.475Z,0.00
2019-02-12T05:25:09.753Z,0.00
2019-02-12T05:27:38.214Z,-0.10
2019-02-12T05:30:09.863Z,-0.10
2019-02-12T05:32:38.313Z,-0.10
2019-02-12T05:35:07.625Z,-0.20
2019-02-12T05:37:36.089Z,0.00
2019-02-12T05:40:07.579Z,0.00
2019-02-12T05:42:36.023Z,0.00
2019-02-12T05:45:07.629Z,0.00
2019-02-12T05:47:36.067Z,0.00
2019-02-12T05:50:06.749Z,-0.10
2019-02-12T05:52:35.188Z,-0.10
2019-02-12T05:55:04.208Z,0.00
2019-02-12T05:57:32.668Z,-0.10
2019-02-12T06:00:01.216Z,-0.10
2019-02-12T06:02:29.674Z,0.00
2019-02-12T06:04:58.116Z,0.00
2019-02-12T06:07:26.576Z,0.00
2019-02-12T06:09:55.023Z,0.00
2019-02-12T06:12:23.485Z,0.00
2019-02-12T06:14:51.942Z,0.00
2019-02-12T06:17:20.380Z,0.00
2019-02-12T06:19:48.844Z,0.00
2019-02-12T06:22:17.293Z,0.00
2019-02-12T06:24:45.753Z,0.00
2019-02-12T06:27:14.195Z,0.00
2019-02-12T06:29:42.676Z,0.10
2019-02-12T06:32:11.208Z,0.10
2019-02-12T06:34:40.002Z,0.10
2019-02-12T06:37:09.500Z,0.10
2019-02-12T06:39:38.093Z,0.10
2019-02-12T06:42:06.550Z,0.10
2019-02-12T06:44:35.006Z,0.10
2019-02-12T06:47:03.738Z,0.10
2019-02-12T06:49:32.583Z,0.10
2019-02-12T06:52:01.035Z,0.10
2019-02-12T06:54:29.497Z,0.10
2019-02-12T06:56:57.977Z,0.10
2019-02-12T06:59:26.449Z,0.10
2019-02-12T07:02:14.523Z,0.20
2019-02-12T07:04:42.983Z,0.30
2019-02-12T07:07:17.452Z,0.30
2019-02-12T07:09:45.917Z,0.30
2019-02-12T07:12:23.193Z,0.20
2019-02-12T07:15:00.304Z,0.20
2019-02-12T07:17:40.907Z,0.30
2019-02-12T07:20:47.195Z,0.30
2019-02-12T07:23:21.719Z,0.30
2019-02-12T07:25:58.852Z,0.40
2019-02-12T07:28:51.673Z,0.40
2019-02-12T07:31:34.663Z,0.40
2019-02-12T07:34:11.928Z,0.40
2019-02-12T07:36:49.405Z,0.40
2019-02-12T07:39:57.236Z,0.40
2019-02-12T07:42:34.215Z,0.40
2019-02-12T07:45:37.312Z,0.50
2019-02-12T07:48:20.862Z,0.60
2019-02-12T07:50:52.480Z,0.50
2019-02-12T07:53:30.897Z,0.60
2019-02-12T07:56:06.274Z,0.60
2019-02-12T07:58:37.884Z,0.60
2019-02-12T08:01:42.644Z,0.70
2019-02-12T08:04:19.663Z,0.70
2019-02-12T08:06:59.735Z,0.80
2019-02-12T08:09:31.296Z,0.80
2019-02-12T08:12:08.696Z,0.90
2019-02-12T08:14:49.434Z,1.00
2019-02-12T08:17:41.944Z,1.10
2019-02-12T08:20:38.997Z,1.30
2019-02-12T08:23:19.528Z,1.40
2019-02-12T08:26:02.960Z,1.50
2019-02-12T08:28:52.161Z,1.70
2019-02-12T08:31:29.764Z,1.80
2019-02-12T08:34:21.052Z,1.90
2019-02-12T08:37:01.501Z,2.00
2019-02-12T08:39:44.481Z,2.00
2019-02-12T08:42:24.722Z,2.00
2019-02-12T08:45:25.192Z,2.00
2019-02-12T08:47:59.701Z,2.10
2019-02-12T08:50:46.132Z,2.20
2019-02-12T08:53:50.771Z,2.30
2019-02-12T08:56:25.404Z,2.30
2019-02-12T08:59:19.852Z,2.40
2019-02-12T09:02:02.677Z,2.30
2019-02-12T09:04:40.024Z,2.30
2019-02-12T09:07:23.650Z,2.40
2019-02-12T09:10:11.502Z,2.50
2019-02-12T09:12:49.214Z,2.50
2019-02-12T09:15:38.764Z,2.60
2019-02-12T09:18:25.109Z,2.60
2019-02-12T09:21:20.829Z,2.70
2019-02-12T09:24:07.271Z,2.70
2019-02-12T09:26:44.453Z,2.80
2019-02-12T09:29:21.605Z,2.80
2019-02-12T09:32:04.931Z,2.90
2019-02-12T09:34:36.465Z,3.00
2019-02-12T09:37:34.025Z,3.00
2019-02-12T09:40:19.425Z,3.10
2019-02-12T09:43:02.936Z,3.10
2019-02-12T09:45:43.815Z,3.10
2019-02-12T09:48:27.385Z,3.10
2019-02-12T09:50:59.253Z,3.20
2019-02-12T09:53:45.640Z,3.20
2019-02-12T09:56:20.030Z,3.30
2019-02-12T09:59:12.872Z,3.30
2019-02-12T10:02:21.242Z,3.30
2019-02-12T10:04:58.276Z,3.30
2019-02-12T10:07:38.526Z,3.30
2019-02-12T10:10:12.837Z,3.40
2019-02-12T10:12:56.141Z,3.40
2019-02-12T10:15:30.493Z,3.50
2019-02-12T10:18:17.301Z,3.50
2019-02-12T10:21:09.286Z,3.70
2019-02-12T10:23:49.666Z,3.70
2019-02-12T10:26:21.198Z,3.80
2019-02-12T10:29:18.339Z,3.80
2019-02-12T10:31:45.764Z,3.80
2019-02-12T10:34:14.344Z,3.90
2019-02-12T10:36:42.856Z,3.90
2019-02-12T10:39:11.789Z,3.90
2019-02-12T10:41:40.290Z,4.00
2019-02-12T10:44:08.744Z,4.00
2019-02-12T10:46:37.182Z,4.00
2019-02-12T10:49:05.739Z,4.00
2019-02-12T10:51:34.175Z,4.00
2019-02-12T10:54:02.617Z,4.00
2019-02-12T10:56:31.243Z,4.10
2019-02-12T10:58:59.684Z,4.10
2019-02-12T11:01:28.180Z,4.30
2019-02-12T11:03:57.201Z,4.30
2019-02-12T11:06:25.740Z,4.30
2019-02-12T11:08:54.181Z,4.30
2019-02-12T11:11:23.768Z,4.30
2019-02-12T11:13:52.298Z,4.40
2019-02-12T11:16:20.912Z,4.40
2019-02-12T11:18:49.353Z,4.30
2019-02-12T11:21:17.816Z,4.40
2019-02-12T11:23:46.428Z,4.50
2019-02-12T11:26:14.912Z,4.50
2019-02-12T11:28:43.633Z,4.50
2019-02-12T11:31:12.449Z,4.50
2019-02-12T11:33:40.910Z,4.60
2019-02-12T11:36:09.473Z,4.60
2019-02-12T11:38:38.022Z,4.80
2019-02-12T11:41:06.546Z,4.70
2019-02-12T11:43:35.164Z,4.80
2019-02-12T11:46:04.000Z,4.90
2019-02-12T11:48:32.636Z,4.90
2019-02-12T11:51:01.131Z,4.90
2019-02-12T11:53:29.621Z,5.00
2019-02-12T11:55:58.168Z,5.00
2019-02-12T11:58:26.681Z,5.00
2019-02-12T12:00:56.789Z,5.20
2019-02-12T12:03:25.313Z,5.30
2019-02-12T12:05:53.812Z,5.30
2019-02-12T12:08:22.276Z,5.30
2019-02-12T12:10:50.718Z,5.30
2019-02-12T12:13:19.197Z,5.30
2019-02-12T12:15:47.659Z,5.50
2019-02-12T12:18:16.093Z,5.40
2019-02-12T12:20:44.909Z,5.50
2019-02-12T12:23:13.331Z,5.50
2019-02-12T12:25:42.087Z,5.50
2019-02-12T12:28:10.655Z,5.60
2019-02-12T12:30:39.511Z,5.80
2019-02-12T12:33:08.017Z,6.10
2019-02-12T12:35:36.546Z,6.20
2019-02-12T12:38:05.318Z,6.20
2019-02-12T12:40:33.799Z,6.40
2019-02-12T12:43:02.268Z,6.20
2019-02-12T12:45:30.767Z,6.60
2019-02-12T12:47:59.253Z,7.10
2019-02-12T12:50:27.724Z,7.30
2019-02-12T12:52:56.177Z,7.30
2019-02-12T12:55:25.424Z,7.60
2019-02-12T12:57:53.987Z,7.10
2019-02-12T13:00:22.501Z,6.70
2019-02-12T13:02:50.961Z,6.70
2019-02-12T13:05:25.375Z,6.60
2019-02-12T13:07:53.842Z,6.60
2019-02-12T13:10:22.369Z,6.80
2019-02-12T13:12:51.004Z,7.20
2019-02-12T13:15:19.520Z,7.90
2019-02-12T13:17:48.065Z,8.20
2019-02-12T13:20:20.074Z,8.30
2019-02-12T13:22:48.601Z,8.40
2019-02-12T13:25:17.482Z,8.80
2019-02-12T13:27:46.076Z,8.80
2019-02-12T13:30:16.672Z,9.10
2019-02-12T13:32:45.160Z,9.10
2019-02-12T13:35:13.844Z,8.50
2019-02-12T13:37:42.470Z,8.40
2019-02-12T13:40:12.211Z,8.80
2019-02-12T13:42:40.738Z,8.90
2019-02-12T13:45:12.451Z,8.90
2019-02-12T13:47:40.968Z,9.10
2019-02-12T13:50:10.939Z,9.00
2019-02-12T13:52:39.371Z,9.00
2019-02-12T13:55:17.029Z,8.80
2019-02-12T13:57:39.426Z,8.60
2019-02-12T14:00:13.386Z,8.40
2019-02-12T14:02:41.811Z,8.40
2019-02-12T14:05:21.546Z,8.20
2019-02-12T14:07:50.118Z,8.20
2019-02-12T14:10:18.615Z,8.10
2019-02-12T14:12:47.080Z,8.10
2019-02-12T14:15:15.592Z,8.10
2019-02-12T14:17:44.059Z,8.00
2019-02-12T14:20:16.387Z,8.30
2019-02-12T14:22:44.856Z,8.50
2019-02-12T14:25:24.782Z,8.20
2019-02-12T14:27:46.871Z,8.30
2019-02-12T14:30:19.712Z,8.30
2019-02-12T14:32:48.244Z,8.10
2019-02-12T14:35:17.090Z,7.80
2019-02-12T14:37:45.877Z,7.40
2019-02-12T14:40:15.658Z,7.50
2019-02-12T14:42:44.209Z,7.40
2019-02-12T14:45:18.405Z,7.20
2019-02-12T14:47:46.873Z,7.00
2019-02-12T14:50:17.249Z,6.80
2019-02-12T14:52:45.776Z,6.70
2019-02-12T14:55:14.236Z,6.90
2019-02-12T14:57:42.819Z,7.50
2019-02-12T15:00:18.589Z,8.00
2019-02-12T15:02:47.133Z,8.00
2019-02-12T15:05:15.804Z,8.20
2019-02-12T15:07:44.404Z,8.00
2019-02-12T15:10:14.920Z,8.00
2019-02-12T15:12:43.453Z,8.00
2019-02-12T15:15:12.420Z,8.40
2019-02-12T15:17:40.859Z,8.30
2019-02-12T15:20:13.184Z,8.10
2019-02-12T15:22:41.769Z,7.70
2019-02-12T15:25:11.759Z,7.20
2019-02-12T15:27:40.368Z,7.10
2019-02-12T15:30:14.457Z,7.20
2019-02-12T15:32:43.830Z,7.20
2019-02-12T15:35:13.049Z,7.20
2019-02-12T15:37:41.512Z,7.20
2019-02-12T15:40:18.455Z,7.00
2019-02-12T15:42:46.888Z,6.90
2019-02-12T15:45:18.274Z,6.80
2019-02-12T15:47:47.035Z,6.70
2019-02-12T15:50:15.577Z,6.70
2019-02-12T15:52:44.012Z,6.60
2019-02-12T15:55:17.789Z,8.30
2019-02-12T15:57:46.332Z,6.40
2019-02-12T16:00:20.672Z,6.40
2019-02-12T16:02:49.521Z,6.30
2019-02-12T16:05:18.034Z,6.30
2019-02-12T16:07:47.388Z,6.20
2019-02-12T16:10:19.701Z,6.20
2019-02-12T16:12:49.436Z,6.20
2019-02-12T16:15:21.872Z,6.10
2019-02-12T16:17:49.819Z,6.00
2019-02-12T16:20:18.375Z,5.90
2019-02-12T16:22:46.904Z,5.90
2019-02-12T16:25:15.671Z,5.80
2019-02-12T16:27:44.422Z,5.70
2019-02-12T16:30:17.677Z,5.70
2019-02-12T16:32:46.200Z,5.60
2019-02-12T16:35:17.268Z,5.50
2019-02-12T16:37:45.968Z,5.50
2019-02-12T16:40:15.340Z,5.40
2019-02-12T16:42:43.826Z,5.40
2019-02-12T16:45:21.446Z,5.40
2019-02-12T16:47:49.905Z,5.40
2019-02-12T16:50:18.401Z,5.50
2019-02-12T16:52:46.860Z,5.40
2019-02-12T16:55:15.305Z,5.30
2019-02-12T16:57:43.759Z,5.20
2019-02-12T17:00:17.294Z,5.10
2019-02-12T17:02:46.726Z,5.10
2019-02-12T17:05:15.622Z,5.10
2019-02-12T17:07:45.113Z,5.00
2019-02-12T17:10:14.196Z,4.90
2019-02-12T17:12:42.731Z,4.80
2019-02-12T17:15:14.908Z,4.70
2019-02-12T17:17:43.425Z,4.60
2019-02-12T17:20:14.810Z,4.40
2019-02-12T17:22:43.328Z,4.50
2019-02-12T17:25:11.852Z,4.50
2019-02-12T17:27:40.313Z,4.50
2019-02-12T17:30:11.520Z,4.40
2019-02-12T17:32:40.034Z,4.30
2019-02-12T17:35:09.144Z,4.50
2019-02-12T17:37:37.580Z,4.50
2019-02-12T17:40:09.252Z,4.40
2019-02-12T17:42:37.696Z,4.40
2019-02-12T17:45:09.600Z,4.20
2019-02-12T17:47:38.112Z,4.20
2019-02-12T17:50:09.227Z,4.30
2019-02-12T17:52:37.737Z,4.20
2019-02-12T17:55:07.836Z,4.10
2019-02-12T17:57:36.289Z,4.10
2019-02-12T18:00:15.288Z,4.00
2019-02-12T18:02:43.718Z,4.10
2019-02-12T18:05:13.138Z,4.00
2019-02-12T18:07:41.684Z,4.00
2019-02-12T18:10:11.486Z,4.00
2019-02-12T18:12:39.924Z,4.00
2019-02-12T18:15:13.453Z,4.00
2019-02-12T18:17:41.908Z,3.90
2019-02-12T18:20:14.989Z,3.90
2019-02-12T18:22:43.492Z,3.80
2019-02-12T18:25:12.023Z,3.70
2019-02-12T18:27:41.231Z,3.70
2019-02-12T18:30:14.913Z,3.70
2019-02-12T18:32:43.372Z,3.70
2019-02-12T18:35:11.881Z,3.70
2019-02-12T18:37:40.340Z,3.80
2019-02-12T18:40:16.641Z,3.80
2019-02-12T18:42:45.100Z,3.80
2019-02-12T18:45:19.405Z,3.80
2019-02-12T18:47:47.871Z,3.80
2019-02-12T18:50:16.312Z,3.70
2019-02-12T18:52:44.853Z,3.80
2019-02-12T18:55:16.683Z,3.80
2019-02-12T18:57:45.143Z,4.00
2019-02-12T19:00:19.026Z,3.90
2019-02-12T19:02:47.629Z,3.90
2019-02-12T19:05:16.434Z,3.90
2019-02-12T19:07:44.897Z,3.80
2019-02-12T19:10:15.148Z,3.80
2019-02-12T19:12:43.609Z,3.70
2019-02-12T19:15:20.233Z,3.70
2019-02-12T19:17:51.767Z,3.70
2019-02-12T19:20:20.223Z,3.40
2019-02-12T19:22:48.732Z,3.50
2019-02-12T19:25:17.192Z,3.50
2019-02-12T19:27:45.937Z,3.40
2019-02-12T19:30:16.369Z,3.30
2019-02-12T19:32:44.830Z,3.10
2019-02-12T19:35:13.376Z,3.20
2019-02-12T19:37:41.875Z,3.20
2019-02-12T19:40:11.961Z,3.40
2019-02-12T19:42:40.469Z,3.40
2019-02-12T19:45:14.606Z,3.40
2019-02-12T19:47:43.072Z,3.40
2019-02-12T19:50:12.619Z,3.40
2019-02-12T19:52:41.144Z,3.30
2019-02-12T19:55:10.448Z,3.30
2019-02-12T19:57:38.901Z,3.30
2019-02-12T20:00:19.248Z,3.20
2019-02-12T20:02:48.438Z,3.20
2019-02-12T20:05:17.044Z,3.20
2019-02-12T20:07:45.500Z,3.00
2019-02-12T20:10:14.881Z,2.90
2019-02-12T20:12:43.608Z,3.00
2019-02-12T20:15:20.552Z,2.90
2019-02-12T20:17:49.028Z,2.90
2019-02-12T20:20:17.484Z,3.00
2019-02-12T20:22:46.024Z,3.00
2019-02-12T20:25:14.550Z,3.00
2019-02-12T20:27:43.340Z,2.90
2019-02-12T20:30:15.888Z,2.80
2019-02-12T20:32:44.364Z,2.90
2019-02-12T20:35:15.226Z,2.90
2019-02-12T20:37:43.689Z,2.90
2019-02-12T20:40:13.680Z,2.90
2019-02-12T20:42:42.141Z,2.90
2019-02-12T20:45:15.646Z,2.90
2019-02-12T20:47:44.237Z,2.90
2019-02-12T20:50:14.329Z,2.80
2019-02-12T20:52:42.858Z,2.80
2019-02-12T20:55:11.655Z,2.70
2019-02-12T20:57:40.526Z,2.60
2019-02-12T21:00:14.707Z,2.60
2019-02-12T21:02:43.306Z,2.60
2019-02-12T21:05:13.696Z,2.60
2019-02-12T21:07:42.477Z,2.50
2019-02-12T21:10:13.745Z,2.50
2019-02-12T21:12:42.500Z,2.50
2019-02-12T21:15:13.776Z,2.50
2019-02-12T21:17:42.216Z,2.40
2019-02-12T21:20:11.570Z,2.40
2019-02-12T21:22:40.849Z,2.40
2019-02-12T21:25:11.152Z,2.40
2019-02-12T21:27:39.660Z,2.40
2019-02-12T21:30:28.687Z,2.40
2019-02-12T21:32:57.124Z,2.30
2019-02-12T21:35:25.585Z,2.30
2019-02-12T21:37:54.028Z,2.30
2019-02-12T21:40:27.326Z,2.30
2019-02-12T21:42:55.779Z,2.30
2019-02-12T21:45:24.303Z,2.40
2019-02-12T21:47:52.750Z,2.30
2019-02-12T21:50:21.221Z,2.30
2019-02-12T21:52:49.660Z,2.20
2019-02-12T21:55:19.781Z,2.20
2019-02-12T21:57:48.238Z,2.20
2019-02-12T22:00:21.013Z,2.10
2019-02-12T22:02:49.458Z,2.10
2019-02-12T22:05:18.256Z,2.20
2019-02-12T22:07:46.763Z,2.20
2019-02-12T22:10:21.317Z,2.10
2019-02-12T22:12:50.180Z,2.20
2019-02-12T22:15:18.678Z,2.10
2019-02-12T22:17:47.202Z,2.20
2019-02-12T22:20:17.480Z,2.00
2019-02-12T22:22:45.964Z,2.00
2019-02-12T22:25:14.521Z,2.10
2019-02-12T22:27:42.984Z,2.10
2019-02-12T22:30:17.168Z,2.10
2019-02-12T22:32:45.704Z,2.20
2019-02-12T22:35:14.659Z,2.20
2019-02-12T22:37:43.337Z,2.10
2019-02-12T22:40:15.920Z,2.10
2019-02-12T22:42:44.452Z,2.10
2019-02-12T22:45:21.105Z,2.10
2019-02-12T22:47:49.574Z,2.00
2019-02-12T22:50:18.148Z,1.90
2019-02-12T22:52:46.686Z,1.80
2019-02-12T22:55:15.197Z,1.90
2019-02-12T22:57:49.223Z,1.80
2019-02-12T23:00:24.792Z,2.00
2019-02-12T23:02:53.456Z,2.00
2019-02-12T23:05:22.279Z,1.90
2019-02-12T23:07:50.920Z,2.00
2019-02-12T23:10:19.404Z,1.90
2019-02-12T23:12:47.868Z,2.00
2019-02-12T23:15:16.325Z,1.90
2019-02-12T23:17:44.889Z,1.80
2019-02-12T23:20:13.477Z,1.80
2019-02-12T23:22:41.919Z,1.90
2019-02-12T23:25:10.452Z,1.90
2019-02-12T23:27:38.897Z,1.90
2019-02-12T23:30:09.559Z,1.90
2019-02-12T23:32:38.202Z,1.90
2019-02-12T23:35:07.165Z,2.00
2019-02-12T23:37:35.782Z,2.00
2019-02-12T23:40:05.796Z,1.90
2019-02-12T23:42:34.357Z,1.90
2019-02-12T23:45:02.914Z,1.90
2019-02-12T23:47:31.365Z,1.80
2019-02-12T23:49:59.833Z,1.90
2019-02-12T23:52:28.379Z,1.80
2019-02-12T23:54:57.103Z,1.80
2019-02-12T23:57:26.345Z,1.90
2019-02-12T23:59:54.933Z,1.90
